Terminal Aerodrome Forecast
Issued by NWS

Home | Current Version | Previous Version | Text Only | Print | Product List | Glossary On
Versions: 1 2 3 4 5 6 7 8 9 10 11 12 13 14 15 16 17 18 19 20 21
055
FTUS43 KPAH 181732
TAFCGI
TAF
KCGI 181732Z 1818/1918 28005KT P6SM FEW250
     FM182300 19003KT P6SM SCT120
     FM190800 VRB03KT 6SM BR SCT060 BKN120
     FM191300 32003KT P6SM SKC=

USA.gov is the U.S. government's official web portal to all federal, state and local government web resources and services.